createdAt,value
2023-01-15T00:02:12.944Z,3.67
2023-01-15T00:04:39.964Z,7.10
2023-01-15T00:07:06.988Z,4.17
2023-01-15T00:09:33.988Z,6.97
2023-01-15T00:12:02.319Z,3.23
2023-01-15T00:14:29.320Z,7.20
2023-01-15T00:16:56.299Z,3.43
2023-01-15T00:19:23.278Z,1.83
2023-01-15T00:21:50.348Z,4.37
2023-01-15T00:24:35.844Z,3.80
2023-01-15T00:27:21.466Z,3.10
2023-01-15T00:29:48.611Z,3.60
2023-01-15T00:32:15.488Z,1.63
2023-01-15T00:34:42.490Z,2.57
2023-01-15T00:37:09.446Z,2.50
2023-01-15T00:39:36.436Z,3.00
2023-01-15T00:42:03.815Z,1.47
2023-01-15T00:44:33.209Z,1.50
2023-01-15T00:47:00.491Z,1.67
2023-01-15T00:49:27.446Z,4.17
2023-01-15T00:51:54.492Z,3.97
2023-01-15T00:54:21.855Z,2.57
2023-01-15T00:56:48.767Z,1.97
2023-01-15T00:59:16.157Z,2.07
2023-01-15T01:01:43.368Z,9.27
2023-01-15T01:04:10.455Z,7.53
2023-01-15T01:06:37.566Z,4.13
2023-01-15T01:09:04.682Z,6.20
2023-01-15T01:11:34.455Z,1.47
2023-01-15T01:14:02.827Z,2.23
2023-01-15T01:16:38.691Z,0.90
2023-01-15T01:19:12.686Z,8.90
2023-01-15T01:21:40.953Z,1.67
2023-01-15T01:24:08.316Z,1.63
2023-01-15T01:26:35.706Z,1.20
2023-01-15T01:29:03.130Z,1.23
2023-01-15T01:31:30.204Z,1.00
2023-01-15T01:33:59.205Z,2.17
2023-01-15T01:36:36.658Z,1.03
2023-01-15T01:39:05.687Z,2.27
2023-01-15T01:41:32.992Z,1.20
2023-01-15T01:44:05.753Z,1.10
2023-01-15T01:46:34.880Z,1.00
2023-01-15T01:49:14.497Z,2.23
2023-01-15T01:51:48.691Z,0.90
2023-01-15T01:54:19.907Z,0.87
2023-01-15T01:56:49.771Z,0.80
2023-01-15T01:59:20.294Z,1.10
2023-01-15T02:01:49.505Z,1.37
2023-01-15T02:04:18.625Z,0.80
2023-01-15T02:06:45.546Z,1.25
2023-01-15T02:09:12.855Z,0.70
2023-01-15T02:11:39.989Z,0.80
2023-01-15T02:14:38.288Z,1.27
2023-01-15T02:17:16.820Z,2.60
2023-01-15T02:19:52.872Z,3.87
2023-01-15T02:22:44.430Z,2.50
2023-01-15T02:25:28.577Z,3.70
2023-01-15T02:28:04.327Z,2.70
2023-01-15T02:30:38.727Z,0.70
2023-01-15T02:33:12.173Z,1.00
2023-01-15T02:35:45.682Z,1.73
2023-01-15T02:38:17.065Z,1.00
2023-01-15T02:40:44.440Z,1.00
2023-01-15T02:43:14.339Z,0.70
2023-01-15T02:45:43.762Z,1.02
2023-01-15T02:48:14.193Z,4.23
2023-01-15T02:50:45.618Z,1.13
2023-01-15T02:53:17.253Z,0.73
2023-01-15T02:55:49.301Z,1.07
2023-01-15T02:58:26.938Z,0.93
2023-01-15T03:00:56.761Z,0.77
2023-01-15T03:03:42.527Z,0.90
2023-01-15T03:06:33.172Z,0.68
2023-01-15T03:09:00.356Z,2.00
2023-01-15T03:11:28.120Z,1.20
2023-01-15T03:14:06.302Z,0.60
2023-01-15T03:16:39.366Z,1.07
2023-01-15T03:19:39.279Z,0.90
2023-01-15T03:22:27.325Z,0.60
2023-01-15T03:25:19.209Z,2.10
2023-01-15T03:27:46.204Z,7.00
2023-01-15T03:30:16.494Z,0.70
2023-01-15T03:32:43.729Z,0.60
2023-01-15T03:35:45.660Z,1.43
2023-01-15T03:38:15.053Z,1.27
2023-01-15T03:41:09.329Z,2.20
2023-01-15T03:43:47.162Z,0.65
2023-01-15T03:46:37.052Z,0.70
2023-01-15T03:49:24.756Z,0.80
2023-01-15T03:52:08.405Z,1.03
2023-01-15T03:55:24.554Z,1.47
2023-01-15T03:58:11.923Z,0.75
2023-01-15T04:00:53.078Z,0.80
2023-01-15T04:03:22.831Z,4.53
2023-01-15T04:05:51.839Z,0.68
2023-01-15T04:08:19.922Z,0.70
2023-01-15T04:10:58.743Z,0.70
2023-01-15T04:13:26.152Z,1.13
2023-01-15T04:15:53.549Z,0.77
2023-01-15T04:18:21.380Z,1.17
2023-01-15T04:20:49.175Z,0.60
2023-01-15T04:23:16.373Z,0.60
2023-01-15T04:25:43.472Z,1.70
2023-01-15T04:28:10.426Z,1.00
2023-01-15T04:30:37.571Z,0.60
2023-01-15T04:33:05.254Z,1.15
2023-01-15T04:35:32.235Z,1.02
2023-01-15T04:38:00.391Z,0.70
2023-01-15T04:40:46.404Z,0.90
2023-01-15T04:43:32.941Z,0.67
2023-01-15T04:46:00.424Z,0.70
2023-01-15T04:48:27.703Z,1.88
2023-01-15T04:50:55.155Z,0.73
2023-01-15T04:53:22.194Z,1.47
2023-01-15T04:55:49.153Z,1.90
2023-01-15T04:58:16.167Z,4.93
2023-01-15T05:00:43.141Z,5.73
2023-01-15T05:03:10.070Z,0.70
2023-01-15T05:05:37.057Z,1.63
2023-01-15T05:08:04.126Z,2.50
2023-01-15T05:10:31.077Z,2.70
2023-01-15T05:12:58.015Z,1.05
2023-01-15T05:15:25.379Z,1.30
2023-01-15T05:17:52.366Z,4.85
2023-01-15T05:20:19.326Z,0.97
2023-01-15T05:22:46.253Z,0.80
2023-01-15T05:25:13.309Z,2.43
2023-01-15T05:27:41.006Z,1.17
2023-01-15T05:30:08.931Z,0.73
2023-01-15T05:32:35.967Z,3.80
2023-01-15T05:35:02.873Z,0.80
2023-01-15T05:37:30.661Z,1.17
2023-01-15T05:39:57.710Z,0.70
2023-01-15T05:42:24.650Z,0.95
2023-01-15T05:44:51.545Z,2.87
2023-01-15T05:47:18.773Z,0.60
2023-01-15T05:49:45.818Z,1.10
2023-01-15T05:52:12.890Z,0.77
2023-01-15T05:54:39.819Z,1.13
2023-01-15T05:57:06.904Z,0.60
2023-01-15T05:59:33.969Z,0.70
2023-01-15T06:02:01.409Z,0.70
2023-01-15T06:04:28.334Z,2.37
2023-01-15T06:06:56.640Z,0.70
2023-01-15T06:09:24.264Z,0.70
2023-01-15T06:11:53.759Z,2.50
2023-01-15T06:14:20.749Z,4.17
2023-01-15T06:16:48.864Z,1.88
2023-01-15T06:19:15.984Z,1.08
2023-01-15T06:21:43.903Z,5.05
2023-01-15T06:24:18.393Z,3.45
2023-01-15T06:26:47.119Z,4.78
2023-01-15T06:29:19.055Z,1.35
2023-01-15T06:31:49.791Z,1.77
2023-01-15T06:34:18.611Z,0.60
2023-01-15T06:36:45.634Z,6.22
2023-01-15T06:39:12.637Z,2.10
2023-01-15T06:42:01.229Z,3.37
2023-01-15T06:44:47.843Z,4.13
2023-01-15T06:47:38.856Z,1.73
2023-01-15T06:50:06.611Z,3.00
2023-01-15T06:52:35.422Z,10.97
2023-01-15T06:55:02.432Z,9.13
2023-01-15T06:57:31.367Z,4.40
2023-01-15T06:59:58.767Z,3.60
2023-01-15T07:02:26.248Z,15.13
2023-01-15T07:04:53.627Z,5.80
2023-01-15T07:07:23.877Z,2.60
2023-01-15T07:09:52.910Z,1.43
2023-01-15T07:12:21.406Z,1.10
2023-01-15T07:14:48.939Z,0.53
2023-01-15T07:17:22.202Z,0.63
2023-01-15T07:19:49.744Z,0.60
2023-01-15T07:22:19.212Z,0.60
2023-01-15T07:24:49.752Z,1.40
2023-01-15T07:27:25.768Z,0.70
2023-01-15T07:29:56.746Z,0.60
2023-01-15T07:32:32.161Z,1.23
2023-01-15T07:35:00.481Z,1.07
2023-01-15T07:37:29.472Z,0.70
2023-01-15T07:40:02.082Z,0.90
2023-01-15T07:42:51.038Z,0.70
2023-01-15T07:45:43.099Z,2.20
2023-01-15T07:48:30.930Z,0.80
2023-01-15T07:50:58.145Z,1.27
2023-01-15T07:53:30.869Z,2.00
2023-01-15T07:56:03.935Z,2.47
2023-01-15T07:58:50.479Z,1.33
2023-01-15T08:01:22.941Z,0.70
2023-01-15T08:03:55.775Z,1.00
2023-01-15T08:06:29.087Z,0.60
2023-01-15T08:08:56.928Z,0.70
2023-01-15T08:11:47.527Z,0.60
2023-01-15T08:14:34.429Z,0.77
2023-01-15T08:17:01.594Z,0.60
2023-01-15T08:19:32.895Z,1.13
2023-01-15T08:22:02.853Z,0.70
2023-01-15T08:24:31.130Z,0.97
2023-01-15T08:26:58.909Z,0.50
2023-01-15T08:29:27.053Z,0.70
2023-01-15T08:32:03.507Z,0.70
2023-01-15T08:34:32.362Z,0.80
2023-01-15T08:37:01.654Z,5.40
2023-01-15T08:39:50.078Z,2.60
2023-01-15T08:42:37.528Z,11.00
2023-01-15T08:45:06.952Z,12.00
2023-01-15T08:47:34.548Z,5.13
2023-01-15T08:50:01.909Z,3.60
2023-01-15T08:52:29.905Z,1.90
2023-01-15T08:57:47.644Z,1.47
2023-01-15T09:00:17.354Z,1.17
2023-01-15T09:02:50.915Z,0.90
2023-01-15T09:05:23.798Z,4.00
2023-01-15T09:07:57.922Z,2.47
2023-01-15T09:10:32.828Z,1.10
2023-01-15T09:13:04.582Z,1.10
2023-01-15T09:15:33.826Z,1.67
2023-01-15T09:18:05.490Z,0.90
2023-01-15T09:20:34.113Z,0.97
2023-01-15T09:23:01.242Z,3.87
2023-01-15T09:25:28.662Z,2.67
2023-01-15T09:27:56.884Z,1.30
2023-01-15T09:30:27.238Z,2.77
2023-01-15T09:32:55.469Z,3.13
2023-01-15T09:35:23.003Z,2.83
2023-01-15T09:37:54.099Z,2.50
2023-01-15T09:40:55.848Z,2.37
2023-01-15T09:43:51.511Z,2.57
2023-01-15T09:46:54.076Z,1.27
2023-01-15T09:49:46.521Z,0.70
2023-01-15T09:52:31.352Z,1.80
2023-01-15T09:55:27.272Z,1.20
2023-01-15T09:57:59.019Z,0.73
2023-01-15T10:00:29.869Z,2.50
2023-01-15T10:03:56.570Z,1.83
2023-01-15T10:06:45.518Z,4.33
2023-01-15T10:09:35.302Z,1.93
2023-01-15T10:12:35.562Z,0.93
2023-01-15T10:15:13.805Z,1.10
2023-01-15T10:17:42.316Z,2.00
2023-01-15T10:20:28.945Z,3.83
2023-01-15T10:23:38.275Z,2.43
2023-01-15T10:26:25.569Z,1.10
2023-01-15T10:29:03.798Z,0.80
2023-01-15T10:31:51.862Z,1.20
2023-01-15T10:35:05.343Z,1.07
2023-01-15T10:37:49.881Z,1.13
2023-01-15T10:40:25.263Z,1.43
2023-01-15T10:43:25.725Z,4.90
2023-01-15T10:46:18.139Z,1.10
2023-01-15T10:48:57.560Z,0.90
2023-01-15T10:51:31.189Z,1.23
2023-01-15T10:54:11.696Z,1.00
2023-01-15T10:57:12.379Z,0.80
2023-01-15T11:00:11.777Z,2.03
2023-01-15T11:02:44.367Z,1.07
2023-01-15T11:05:20.142Z,0.70
2023-01-15T11:08:14.104Z,0.80
2023-01-15T11:10:40.687Z,0.80
2023-01-15T11:14:10.857Z,0.80
2023-01-15T11:17:02.047Z,0.80
2023-01-15T11:19:39.952Z,0.80
2023-01-15T11:22:37.159Z,0.90
2023-01-15T11:25:05.006Z,3.63
2023-01-15T11:27:39.031Z,2.37
2023-01-15T11:34:06.432Z,1.00
2023-01-15T11:36:37.041Z,0.80
2023-01-15T11:39:04.377Z,0.93
2023-01-15T11:41:56.509Z,4.67
2023-01-15T11:44:43.597Z,1.03
2023-01-15T11:50:45.621Z,0.93
2023-01-15T11:53:21.176Z,0.80
2023-01-15T11:56:09.432Z,2.83
2023-01-15T11:58:55.800Z,2.97
2023-01-15T12:02:01.475Z,1.20
2023-01-15T12:04:55.796Z,1.03
2023-01-15T12:07:26.134Z,1.23
2023-01-15T12:10:16.185Z,2.63
2023-01-15T12:13:22.541Z,1.57
2023-01-15T12:16:09.282Z,14.33
2023-01-15T12:19:26.787Z,0.77
2023-01-15T12:22:02.877Z,1.87
2023-01-15T12:24:41.912Z,0.80
2023-01-15T12:27:35.203Z,0.80
2023-01-15T12:30:27.006Z,0.90
2023-01-15T12:33:20.004Z,0.87
2023-01-15T12:36:24.679Z,0.93
2023-01-15T12:39:02.395Z,5.77
2023-01-15T12:41:55.383Z,3.73
2023-01-15T12:45:05.441Z,2.27
2023-01-15T12:47:41.666Z,3.17
2023-01-15T12:50:39.674Z,1.73
2023-01-15T12:53:25.479Z,1.23
2023-01-15T12:56:12.665Z,1.77
2023-01-15T12:58:49.734Z,1.20
2023-01-15T13:01:49.134Z,4.93
2023-01-15T13:04:42.496Z,4.20
2023-01-15T13:07:38.280Z,6.73
2023-01-15T13:10:30.988Z,11.27
2023-01-15T13:13:14.002Z,7.27
2023-01-15T13:15:47.799Z,2.23
2023-01-15T13:18:42.686Z,4.33
2023-01-15T13:21:14.230Z,3.20
2023-01-15T13:24:18.692Z,3.87
2023-01-15T13:26:53.677Z,5.43
2023-01-15T13:29:56.501Z,5.83
2023-01-15T13:32:56.711Z,17.63
2023-01-15T13:35:40.605Z,9.77
2023-01-15T13:38:16.380Z,3.83
2023-01-15T13:40:50.527Z,7.03
2023-01-15T13:43:41.505Z,5.23
2023-01-15T13:46:20.469Z,5.67
2023-01-15T13:48:50.340Z,4.67
2023-01-15T13:51:43.240Z,9.37
2023-01-15T13:54:16.245Z,5.37
2023-01-15T13:56:44.791Z,14.00
2023-01-15T13:59:44.557Z,4.37
2023-01-15T14:02:41.336Z,4.70
2023-01-15T14:05:29.704Z,8.87
2023-01-15T14:07:56.777Z,5.13
2023-01-15T14:10:36.246Z,6.27
2023-01-15T14:13:15.184Z,10.17
2023-01-15T14:16:32.359Z,3.47
2023-01-15T14:19:24.664Z,8.23
2023-01-15T14:22:23.440Z,18.33
2023-01-15T14:24:56.415Z,5.47
2023-01-15T14:27:29.480Z,10.07
2023-01-15T14:30:32.511Z,3.50
2023-01-15T14:33:55.003Z,3.87
2023-01-15T14:36:29.991Z,3.47
2023-01-15T14:39:03.290Z,7.07
2023-01-15T14:41:59.529Z,3.87
2023-01-15T14:44:31.302Z,4.07
2023-01-15T14:47:04.463Z,1.27
2023-01-15T14:49:42.978Z,2.17
2023-01-15T14:52:10.464Z,3.63
2023-01-15T14:54:39.559Z,2.50
2023-01-15T14:57:09.799Z,4.40
2023-01-15T14:59:46.815Z,2.70
2023-01-15T15:02:25.547Z,2.83
2023-01-15T15:04:56.222Z,3.20
2023-01-15T15:07:43.684Z,2.23
2023-01-15T15:10:39.986Z,6.50
2023-01-15T15:13:27.955Z,4.47
2023-01-15T15:16:11.751Z,23.00
2023-01-15T15:18:50.260Z,9.30
2023-01-15T15:21:23.779Z,3.43
2023-01-15T15:23:59.897Z,2.43
2023-01-15T15:26:30.963Z,6.07
2023-01-15T15:29:02.372Z,2.10
2023-01-15T15:31:37.100Z,6.43
2023-01-15T15:34:07.241Z,15.97
2023-01-15T15:36:39.554Z,2.60
2023-01-15T15:39:53.311Z,3.00
2023-01-15T15:42:50.277Z,5.87
2023-01-15T15:45:39.428Z,3.73
2023-01-15T15:48:42.138Z,3.87
2023-01-15T15:51:34.429Z,4.63
2023-01-15T15:54:13.549Z,4.03
2023-01-15T15:56:53.054Z,7.70
2023-01-15T15:59:30.345Z,5.27
2023-01-15T16:02:01.238Z,9.87
2023-01-15T16:04:28.850Z,5.20
2023-01-15T16:06:55.802Z,2.33
2023-01-15T16:09:24.336Z,9.80
2023-01-15T16:11:53.400Z,5.73
2023-01-15T16:14:21.893Z,88.47
2023-01-15T16:16:50.332Z,60.83
2023-01-15T16:19:25.645Z,46.30
2023-01-15T16:21:53.850Z,162.77
2023-01-15T16:24:30.104Z,87.13
2023-01-15T16:27:17.576Z,31.07
2023-01-15T16:29:51.262Z,4.83
2023-01-15T16:32:24.814Z,3.10
2023-01-15T16:35:07.187Z,3.43
2023-01-15T16:37:35.926Z,4.03
2023-01-15T16:40:05.261Z,1.23
2023-01-15T16:42:37.569Z,2.67
2023-01-15T16:45:25.765Z,6.20
2023-01-15T16:48:08.060Z,1.47
2023-01-15T16:50:36.884Z,4.03
2023-01-15T16:53:06.686Z,2.03
2023-01-15T16:55:43.103Z,2.10
2023-01-15T16:58:13.785Z,2.90
2023-01-15T17:00:48.844Z,2.73
2023-01-15T17:03:25.101Z,2.50
2023-01-15T17:05:56.269Z,4.37
2023-01-15T17:08:32.116Z,2.87
2023-01-15T17:11:01.966Z,4.63
2023-01-15T17:13:38.552Z,5.70
2023-01-15T17:16:26.334Z,3.90
2023-01-15T17:18:53.282Z,3.77
2023-01-15T17:21:29.149Z,2.97
2023-01-15T17:23:57.506Z,1.50
2023-01-15T17:26:27.136Z,2.17
2023-01-15T17:28:54.995Z,2.73
2023-01-15T17:31:30.985Z,2.20
2023-01-15T17:34:01.481Z,3.70
2023-01-15T17:36:30.616Z,1.50
2023-01-15T17:38:57.680Z,1.93
2023-01-15T17:41:24.730Z,1.90
2023-01-15T17:43:52.477Z,3.00
2023-01-15T17:46:20.496Z,5.27
2023-01-15T17:48:47.808Z,20.20
2023-01-15T17:51:16.351Z,11.90
2023-01-15T17:53:43.874Z,6.33
2023-01-15T17:56:29.889Z,6.07
2023-01-15T17:59:15.519Z,11.80
2023-01-15T18:02:04.201Z,7.53
2023-01-15T18:04:56.629Z,12.80
2023-01-15T18:07:28.195Z,8.50
2023-01-15T18:09:56.976Z,8.17
2023-01-15T18:12:25.086Z,4.63
2023-01-15T18:14:52.668Z,7.20
2023-01-15T18:17:20.674Z,5.43
2023-01-15T18:19:48.697Z,10.47
2023-01-15T18:22:16.380Z,16.43
2023-01-15T18:24:43.460Z,8.33
2023-01-15T18:27:10.750Z,3.17
2023-01-15T18:29:40.312Z,4.67
2023-01-15T18:32:09.322Z,8.37
2023-01-15T18:34:37.245Z,3.03
2023-01-15T18:37:05.636Z,3.43
2023-01-15T18:39:34.385Z,1.87
2023-01-15T18:42:01.715Z,2.63
2023-01-15T18:44:49.014Z,4.10
2023-01-15T18:47:17.792Z,3.30
2023-01-15T18:49:46.983Z,8.67
2023-01-15T18:52:35.070Z,5.67
2023-01-15T18:55:02.350Z,3.27
2023-01-15T18:57:32.204Z,5.07
2023-01-15T19:00:02.231Z,4.70
2023-01-15T19:02:29.617Z,2.83
2023-01-15T19:04:56.886Z,2.50
2023-01-15T19:07:23.907Z,3.97
2023-01-15T19:09:50.799Z,6.23
2023-01-15T19:12:20.029Z,3.10
2023-01-15T19:15:05.816Z,4.13
2023-01-15T19:17:51.902Z,2.73
2023-01-15T19:20:20.389Z,2.13
2023-01-15T19:22:59.497Z,1.83
2023-01-15T19:25:37.865Z,1.50
2023-01-15T19:28:05.596Z,3.53
2023-01-15T19:30:35.601Z,3.90
2023-01-15T19:33:03.381Z,3.73
2023-01-15T19:35:32.145Z,2.00
2023-01-15T19:37:59.203Z,3.27
2023-01-15T19:40:30.340Z,1.63
2023-01-15T19:43:15.896Z,3.57
2023-01-15T19:46:04.015Z,2.60
2023-01-15T19:48:49.765Z,3.90
2023-01-15T19:51:16.697Z,3.47
2023-01-15T19:53:44.831Z,4.03
2023-01-15T19:56:12.062Z,3.50
2023-01-15T19:58:39.447Z,1.70
2023-01-15T20:01:06.770Z,1.43
2023-01-15T20:03:33.881Z,2.47
2023-01-15T20:06:00.996Z,2.07
2023-01-15T20:08:30.968Z,2.83
2023-01-15T20:10:58.084Z,3.33
2023-01-15T20:13:43.870Z,2.40
2023-01-15T20:16:23.598Z,7.80
2023-01-15T20:18:52.294Z,4.00
2023-01-15T20:21:19.810Z,1.83
2023-01-15T20:23:47.612Z,5.63
2023-01-15T20:26:15.524Z,5.03
2023-01-15T20:28:43.187Z,4.90
2023-01-15T20:31:18.416Z,7.63
2023-01-15T20:33:46.429Z,9.43
2023-01-15T20:36:14.140Z,6.07
2023-01-15T20:38:41.217Z,2.57
2023-01-15T20:41:28.726Z,6.63
2023-01-15T20:44:14.605Z,3.13
2023-01-15T20:46:42.164Z,3.30
2023-01-15T20:49:32.669Z,2.47
2023-01-15T20:52:01.477Z,1.50
2023-01-15T20:54:28.571Z,2.27
2023-01-15T20:56:55.626Z,3.23
2023-01-15T20:59:22.612Z,2.33
2023-01-15T21:01:49.879Z,2.60
2023-01-15T21:04:16.924Z,2.30
2023-01-15T21:06:44.148Z,5.80
2023-01-15T21:09:11.189Z,2.90
2023-01-15T21:11:38.152Z,1.60
2023-01-15T21:14:05.142Z,5.50
2023-01-15T21:16:32.191Z,2.17
2023-01-15T21:19:01.310Z,2.37
2023-01-15T21:21:28.512Z,1.67
2023-01-15T21:23:55.556Z,1.70
2023-01-15T21:26:24.553Z,2.27
2023-01-15T21:28:55.837Z,3.57
2023-01-15T21:31:22.885Z,3.30
2023-01-15T21:33:53.251Z,5.10
2023-01-15T21:36:21.269Z,1.63
2023-01-15T21:38:54.931Z,3.33
2023-01-15T21:41:42.985Z,8.87
2023-01-15T21:44:33.965Z,4.33
2023-01-15T21:47:12.425Z,1.80
2023-01-15T21:49:40.039Z,3.47
2023-01-15T21:52:13.806Z,4.60
2023-01-15T21:54:41.767Z,1.57
2023-01-15T21:57:08.858Z,3.00
2023-01-15T21:59:35.992Z,1.50
2023-01-15T22:02:03.884Z,4.93
2023-01-15T22:04:34.777Z,6.07
2023-01-15T22:07:02.032Z,3.23
2023-01-15T22:09:29.221Z,2.83
2023-01-15T22:11:56.159Z,5.70
2023-01-15T22:14:29.228Z,4.13
2023-01-15T22:16:59.051Z,2.50
2023-01-15T22:19:29.285Z,4.17
2023-01-15T22:22:09.090Z,1.53
2023-01-15T22:24:38.247Z,3.43
2023-01-15T22:27:06.958Z,2.53
2023-01-15T22:29:38.415Z,3.10
2023-01-15T22:32:06.964Z,2.87
2023-01-15T22:34:33.999Z,6.20
2023-01-15T22:37:01.369Z,6.90
2023-01-15T22:39:28.940Z,4.87
2023-01-15T22:42:14.771Z,1.80
2023-01-15T22:44:44.142Z,2.90
2023-01-15T22:47:12.033Z,3.40
2023-01-15T22:49:38.954Z,2.50
2023-01-15T22:52:05.991Z,1.63
2023-01-15T22:54:32.889Z,3.10
2023-01-15T22:56:59.944Z,3.20
2023-01-15T22:59:26.926Z,3.80
2023-01-15T23:01:54.081Z,1.50
2023-01-15T23:04:24.313Z,3.40
2023-01-15T23:06:52.740Z,6.50
2023-01-15T23:09:21.978Z,1.80
2023-01-15T23:11:51.504Z,5.33
2023-01-15T23:14:20.030Z,6.63
2023-01-15T23:16:47.495Z,4.80
2023-01-15T23:19:14.723Z,4.50
2023-01-15T23:21:42.551Z,3.63
2023-01-15T23:24:10.572Z,4.17
2023-01-15T23:26:37.725Z,3.37
2023-01-15T23:29:05.300Z,4.50
2023-01-15T23:31:32.587Z,5.70
2023-01-15T23:33:59.596Z,3.27
2023-01-15T23:36:26.797Z,4.80
2023-01-15T23:38:53.947Z,3.60
2023-01-15T23:41:41.394Z,2.93
2023-01-15T23:44:37.662Z,5.10
2023-01-15T23:47:06.161Z,5.13
2023-01-15T23:49:33.379Z,1.83
2023-01-15T23:52:00.548Z,2.10
2023-01-15T23:54:29.076Z,4.50
2023-01-15T23:56:56.421Z,2.90
2023-01-15T23:59:23.869Z,3.80
